sensor_id;sensor_type;location;lat;lon;timestamp;P1;durP1;ratioP1;P2;durP2;ratioP2
43248;SDS011;29216;51.248;6.808;2023-04-26T00:02:10;6.20;;;3.60;;
43248;SDS011;29216;51.248;6.808;2023-04-26T00:04:38;5.68;;;3.50;;
43248;SDS011;29216;51.248;6.808;2023-04-26T00:07:05;7.95;;;3.33;;
43248;SDS011;29216;51.248;6.808;2023-04-26T00:09:31;6.97;;;3.30;;
43248;SDS011;29216;51.248;6.808;2023-04-26T00:11:58;10.63;;;3.35;;
43248;SDS011;29216;51.248;6.808;2023-04-26T00:14:24;5.55;;;3.50;;
43248;SDS011;29216;51.248;6.808;2023-04-26T00:16:50;8.95;;;3.42;;
43248;SDS011;29216;51.248;6.808;2023-04-26T00:19:16;8.98;;;3.80;;
43248;SDS011;29216;51.248;6.808;2023-04-26T00:21:42;6.68;;;3.40;;
43248;SDS011;29216;51.248;6.808;2023-04-26T00:24:08;7.50;;;3.55;;
43248;SDS011;29216;51.248;6.808;2023-04-26T00:26:34;8.15;;;3.55;;
43248;SDS011;29216;51.248;6.808;2023-04-26T00:29:01;8.23;;;3.55;;
43248;SDS011;29216;51.248;6.808;2023-04-26T00:31:27;7.50;;;3.33;;
43248;SDS011;29216;51.248;6.808;2023-04-26T00:33:53;6.45;;;3.75;;
43248;SDS011;29216;51.248;6.808;2023-04-26T00:36:19;7.93;;;3.58;;
43248;SDS011;29216;51.248;6.808;2023-04-26T00:38:45;9.13;;;3.35;;
43248;SDS011;29216;51.248;6.808;2023-04-26T00:41:11;8.50;;;3.72;;
43248;SDS011;29216;51.248;6.808;2023-04-26T00:43:37;7.70;;;3.83;;
43248;SDS011;29216;51.248;6.808;2023-04-26T00:46:04;6.30;;;3.20;;
43248;SDS011;29216;51.248;6.808;2023-04-26T00:48:33;9.80;;;3.80;;
43248;SDS011;29216;51.248;6.808;2023-04-26T00:50:59;8.55;;;3.58;;
43248;SDS011;29216;51.248;6.808;2023-04-26T00:53:25;9.65;;;4.07;;
43248;SDS011;29216;51.248;6.808;2023-04-26T00:55:51;6.80;;;3.60;;
43248;SDS011;29216;51.248;6.808;2023-04-26T00:58:18;8.07;;;3.97;;
43248;SDS011;29216;51.248;6.808;2023-04-26T01:00:44;8.95;;;3.60;;
43248;SDS011;29216;51.248;6.808;2023-04-26T01:03:10;8.88;;;3.67;;
43248;SDS011;29216;51.248;6.808;2023-04-26T01:05:36;7.22;;;4.03;;
43248;SDS011;29216;51.248;6.808;2023-04-26T01:08:03;6.88;;;3.67;;
43248;SDS011;29216;51.248;6.808;2023-04-26T01:10:33;7.55;;;3.40;;
43248;SDS011;29216;51.248;6.808;2023-04-26T01:12:59;8.85;;;4.20;;
43248;SDS011;29216;51.248;6.808;2023-04-26T01:15:27;9.15;;;4.30;;
43248;SDS011;29216;51.248;6.808;2023-04-26T01:17:54;14.60;;;4.20;;
43248;SDS011;29216;51.248;6.808;2023-04-26T01:20:21;7.55;;;3.47;;
43248;SDS011;29216;51.248;6.808;2023-04-26T01:22:47;9.65;;;4.25;;
43248;SDS011;29216;51.248;6.808;2023-04-26T01:25:13;7.80;;;4.20;;
43248;SDS011;29216;51.248;6.808;2023-04-26T01:27:41;6.88;;;3.85;;
43248;SDS011;29216;51.248;6.808;2023-04-26T01:30:07;7.55;;;3.80;;
43248;SDS011;29216;51.248;6.808;2023-04-26T01:32:33;9.07;;;4.35;;
43248;SDS011;29216;51.248;6.808;2023-04-26T01:34:59;6.43;;;3.70;;
43248;SDS011;29216;51.248;6.808;2023-04-26T01:37:26;8.10;;;3.50;;
43248;SDS011;29216;51.248;6.808;2023-04-26T01:39:52;5.97;;;3.92;;
43248;SDS011;29216;51.248;6.808;2023-04-26T01:42:17;6.90;;;4.13;;
43248;SDS011;29216;51.248;6.808;2023-04-26T01:44:43;9.65;;;4.43;;
43248;SDS011;29216;51.248;6.808;2023-04-26T01:47:10;11.93;;;4.60;;
43248;SDS011;29216;51.248;6.808;2023-04-26T01:49:36;8.45;;;3.92;;
43248;SDS011;29216;51.248;6.808;2023-04-26T01:52:02;10.43;;;4.13;;
43248;SDS011;29216;51.248;6.808;2023-04-26T01:54:28;11.15;;;4.18;;
43248;SDS011;29216;51.248;6.808;2023-04-26T01:56:54;8.32;;;4.93;;
43248;SDS011;29216;51.248;6.808;2023-04-26T01:59:20;13.82;;;4.80;;
43248;SDS011;29216;51.248;6.808;2023-04-26T02:01:46;8.27;;;4.65;;
43248;SDS011;29216;51.248;6.808;2023-04-26T02:04:12;12.27;;;4.90;;
43248;SDS011;29216;51.248;6.808;2023-04-26T02:06:38;7.85;;;4.38;;
43248;SDS011;29216;51.248;6.808;2023-04-26T02:09:05;13.60;;;4.75;;
43248;SDS011;29216;51.248;6.808;2023-04-26T02:11:33;11.48;;;4.95;;
43248;SDS011;29216;51.248;6.808;2023-04-26T02:13:59;13.32;;;4.68;;
43248;SDS011;29216;51.248;6.808;2023-04-26T02:16:26;13.40;;;5.72;;
43248;SDS011;29216;51.248;6.808;2023-04-26T02:18:52;10.82;;;4.75;;
43248;SDS011;29216;51.248;6.808;2023-04-26T02:21:18;12.75;;;5.38;;
43248;SDS011;29216;51.248;6.808;2023-04-26T02:23:47;8.65;;;4.47;;
43248;SDS011;29216;51.248;6.808;2023-04-26T02:26:13;13.45;;;5.05;;
43248;SDS011;29216;51.248;6.808;2023-04-26T02:28:39;10.75;;;4.68;;
43248;SDS011;29216;51.248;6.808;2023-04-26T02:31:06;9.45;;;5.28;;
43248;SDS011;29216;51.248;6.808;2023-04-26T02:33:32;11.50;;;4.82;;
43248;SDS011;29216;51.248;6.808;2023-04-26T02:36:01;11.68;;;5.50;;
43248;SDS011;29216;51.248;6.808;2023-04-26T02:38:27;10.02;;;5.00;;
43248;SDS011;29216;51.248;6.808;2023-04-26T02:40:59;9.23;;;5.50;;
43248;SDS011;29216;51.248;6.808;2023-04-26T02:43:25;6.53;;;4.13;;
43248;SDS011;29216;51.248;6.808;2023-04-26T02:45:51;12.25;;;4.70;;
43248;SDS011;29216;51.248;6.808;2023-04-26T02:48:17;9.80;;;5.07;;
43248;SDS011;29216;51.248;6.808;2023-04-26T02:50:44;8.80;;;4.40;;
43248;SDS011;29216;51.248;6.808;2023-04-26T02:53:10;8.88;;;5.03;;
43248;SDS011;29216;51.248;6.808;2023-04-26T02:55:37;10.45;;;5.05;;
43248;SDS011;29216;51.248;6.808;2023-04-26T02:58:03;8.05;;;4.35;;
43248;SDS011;29216;51.248;6.808;2023-04-26T03:00:29;8.93;;;4.40;;
43248;SDS011;29216;51.248;6.808;2023-04-26T03:02:55;7.38;;;5.03;;
43248;SDS011;29216;51.248;6.808;2023-04-26T03:05:24;8.63;;;4.28;;
43248;SDS011;29216;51.248;6.808;2023-04-26T03:07:51;10.60;;;4.55;;
43248;SDS011;29216;51.248;6.808;2023-04-26T03:10:17;10.30;;;5.00;;
43248;SDS011;29216;51.248;6.808;2023-04-26T03:12:43;13.05;;;5.97;;
43248;SDS011;29216;51.248;6.808;2023-04-26T03:15:09;10.73;;;4.90;;
43248;SDS011;29216;51.248;6.808;2023-04-26T03:17:35;8.20;;;5.07;;
43248;SDS011;29216;51.248;6.808;2023-04-26T03:20:02;10.65;;;4.97;;
43248;SDS011;29216;51.248;6.808;2023-04-26T03:24:57;13.63;;;4.90;;
43248;SDS011;29216;51.248;6.808;2023-04-26T03:27:23;15.23;;;5.88;;
43248;SDS011;29216;51.248;6.808;2023-04-26T03:29:49;10.98;;;4.95;;
43248;SDS011;29216;51.248;6.808;2023-04-26T03:32:15;11.02;;;5.25;;
43248;SDS011;29216;51.248;6.808;2023-04-26T03:34:41;10.90;;;4.72;;
43248;SDS011;29216;51.248;6.808;2023-04-26T03:37:07;10.10;;;5.03;;
43248;SDS011;29216;51.248;6.808;2023-04-26T03:39:33;14.27;;;6.00;;
43248;SDS011;29216;51.248;6.808;2023-04-26T03:41:59;15.63;;;5.23;;
43248;SDS011;29216;51.248;6.808;2023-04-26T03:44:25;13.33;;;5.70;;
43248;SDS011;29216;51.248;6.808;2023-04-26T03:46:53;15.90;;;5.63;;
43248;SDS011;29216;51.248;6.808;2023-04-26T03:49:22;11.80;;;5.20;;
43248;SDS011;29216;51.248;6.808;2023-04-26T03:51:48;14.30;;;6.47;;
43248;SDS011;29216;51.248;6.808;2023-04-26T03:54:14;18.23;;;5.85;;
43248;SDS011;29216;51.248;6.808;2023-04-26T03:56:40;9.93;;;5.22;;
43248;SDS011;29216;51.248;6.808;2023-04-26T03:59:06;11.80;;;6.50;;
43248;SDS011;29216;51.248;6.808;2023-04-26T04:01:33;11.53;;;6.00;;
43248;SDS011;29216;51.248;6.808;2023-04-26T04:04:00;9.77;;;5.57;;
43248;SDS011;29216;51.248;6.808;2023-04-26T04:06:26;9.77;;;5.93;;
43248;SDS011;29216;51.248;6.808;2023-04-26T04:08:52;12.03;;;7.17;;
43248;SDS011;29216;51.248;6.808;2023-04-26T04:11:18;11.77;;;6.10;;
43248;SDS011;29216;51.248;6.808;2023-04-26T04:13:44;12.53;;;5.80;;
43248;SDS011;29216;51.248;6.808;2023-04-26T04:16:10;11.68;;;6.10;;
43248;SDS011;29216;51.248;6.808;2023-04-26T04:18:36;9.13;;;5.90;;
43248;SDS011;29216;51.248;6.808;2023-04-26T04:21:05;11.40;;;6.13;;
43248;SDS011;29216;51.248;6.808;2023-04-26T04:23:31;10.17;;;6.13;;
43248;SDS011;29216;51.248;6.808;2023-04-26T04:25:57;11.23;;;5.78;;
43248;SDS011;29216;51.248;6.808;2023-04-26T04:28:23;8.20;;;5.30;;
43248;SDS011;29216;51.248;6.808;2023-04-26T04:30:49;9.98;;;5.60;;
43248;SDS011;29216;51.248;6.808;2023-04-26T04:33:17;11.05;;;5.93;;
43248;SDS011;29216;51.248;6.808;2023-04-26T04:35:44;13.35;;;6.32;;
43248;SDS011;29216;51.248;6.808;2023-04-26T04:38:10;14.82;;;5.93;;
43248;SDS011;29216;51.248;6.808;2023-04-26T04:40:36;12.03;;;6.20;;
43248;SDS011;29216;51.248;6.808;2023-04-26T04:43:02;13.07;;;6.32;;
43248;SDS011;29216;51.248;6.808;2023-04-26T04:45:28;11.45;;;6.22;;
43248;SDS011;29216;51.248;6.808;2023-04-26T04:47:54;7.93;;;5.35;;
43248;SDS011;29216;51.248;6.808;2023-04-26T04:50:20;11.15;;;5.78;;
43248;SDS011;29216;51.248;6.808;2023-04-26T04:52:47;14.95;;;5.88;;
43248;SDS011;29216;51.248;6.808;2023-04-26T04:55:13;14.80;;;5.57;;
43248;SDS011;29216;51.248;6.808;2023-04-26T04:57:39;9.32;;;5.55;;
43248;SDS011;29216;51.248;6.808;2023-04-26T05:00:06;9.82;;;5.97;;
43248;SDS011;29216;51.248;6.808;2023-04-26T05:02:36;9.00;;;6.05;;
43248;SDS011;29216;51.248;6.808;2023-04-26T05:05:02;13.65;;;6.00;;
43248;SDS011;29216;51.248;6.808;2023-04-26T05:07:30;10.93;;;5.70;;
43248;SDS011;29216;51.248;6.808;2023-04-26T05:09:56;10.57;;;5.53;;
43248;SDS011;29216;51.248;6.808;2023-04-26T05:12:22;14.30;;;7.10;;
43248;SDS011;29216;51.248;6.808;2023-04-26T05:14:48;11.68;;;6.63;;
43248;SDS011;29216;51.248;6.808;2023-04-26T05:17:14;13.90;;;6.35;;
43248;SDS011;29216;51.248;6.808;2023-04-26T05:19:40;11.75;;;5.90;;
43248;SDS011;29216;51.248;6.808;2023-04-26T05:22:06;16.25;;;6.47;;
43248;SDS011;29216;51.248;6.808;2023-04-26T05:24:32;13.70;;;6.47;;
43248;SDS011;29216;51.248;6.808;2023-04-26T05:27:01;10.00;;;6.10;;
43248;SDS011;29216;51.248;6.808;2023-04-26T05:29:28;10.50;;;5.90;;
43248;SDS011;29216;51.248;6.808;2023-04-26T05:31:57;12.02;;;6.10;;
43248;SDS011;29216;51.248;6.808;2023-04-26T05:34:23;10.48;;;6.20;;
43248;SDS011;29216;51.248;6.808;2023-04-26T05:36:50;12.93;;;6.00;;
43248;SDS011;29216;51.248;6.808;2023-04-26T05:39:16;12.63;;;5.85;;
43248;SDS011;29216;51.248;6.808;2023-04-26T05:41:44;12.50;;;6.05;;
43248;SDS011;29216;51.248;6.808;2023-04-26T05:44:10;13.73;;;5.53;;
43248;SDS011;29216;51.248;6.808;2023-04-26T05:46:36;13.27;;;6.00;;
43248;SDS011;29216;51.248;6.808;2023-04-26T05:49:02;10.20;;;6.18;;
43248;SDS011;29216;51.248;6.808;2023-04-26T05:51:28;11.57;;;5.63;;
43248;SDS011;29216;51.248;6.808;2023-04-26T05:53:54;11.15;;;6.40;;
43248;SDS011;29216;51.248;6.808;2023-04-26T05:56:21;13.02;;;6.18;;
43248;SDS011;29216;51.248;6.808;2023-04-26T05:58:48;13.10;;;6.55;;
43248;SDS011;29216;51.248;6.808;2023-04-26T06:01:17;11.40;;;6.15;;
43248;SDS011;29216;51.248;6.808;2023-04-26T06:03:43;11.68;;;6.07;;
43248;SDS011;29216;51.248;6.808;2023-04-26T06:06:09;10.43;;;5.75;;
43248;SDS011;29216;51.248;6.808;2023-04-26T06:08:35;13.75;;;6.18;;
43248;SDS011;29216;51.248;6.808;2023-04-26T06:11:02;11.48;;;6.03;;
43248;SDS011;29216;51.248;6.808;2023-04-26T06:13:28;10.68;;;6.28;;
43248;SDS011;29216;51.248;6.808;2023-04-26T06:15:55;10.75;;;5.78;;
43248;SDS011;29216;51.248;6.808;2023-04-26T06:18:21;18.40;;;5.90;;
43248;SDS011;29216;51.248;6.808;2023-04-26T06:20:47;11.68;;;6.10;;
43248;SDS011;29216;51.248;6.808;2023-04-26T06:23:13;14.48;;;6.38;;
43248;SDS011;29216;51.248;6.808;2023-04-26T06:25:39;9.93;;;6.05;;
43248;SDS011;29216;51.248;6.808;2023-04-26T06:28:08;8.55;;;5.80;;
43248;SDS011;29216;51.248;6.808;2023-04-26T06:30:34;10.48;;;5.88;;
43248;SDS011;29216;51.248;6.808;2023-04-26T06:33:00;10.90;;;6.70;;
43248;SDS011;29216;51.248;6.808;2023-04-26T06:35:26;9.95;;;5.78;;
43248;SDS011;29216;51.248;6.808;2023-04-26T06:37:52;14.48;;;7.40;;
43248;SDS011;29216;51.248;6.808;2023-04-26T06:40:19;12.25;;;7.03;;
43248;SDS011;29216;51.248;6.808;2023-04-26T06:42:45;14.02;;;6.32;;
43248;SDS011;29216;51.248;6.808;2023-04-26T06:45:11;8.95;;;6.03;;
43248;SDS011;29216;51.248;6.808;2023-04-26T06:47:37;9.35;;;6.05;;
43248;SDS011;29216;51.248;6.808;2023-04-26T06:50:03;12.68;;;6.13;;
43248;SDS011;29216;51.248;6.808;2023-04-26T06:52:29;11.63;;;6.25;;
43248;SDS011;29216;51.248;6.808;2023-04-26T06:54:55;10.50;;;6.25;;
43248;SDS011;29216;51.248;6.808;2023-04-26T06:57:21;9.38;;;6.40;;
43248;SDS011;29216;51.248;6.808;2023-04-26T06:59:47;13.82;;;6.55;;
43248;SDS011;29216;51.248;6.808;2023-04-26T07:02:13;12.25;;;5.97;;
43248;SDS011;29216;51.248;6.808;2023-04-26T07:04:42;9.23;;;6.43;;
43248;SDS011;29216;51.248;6.808;2023-04-26T07:07:08;13.48;;;6.28;;
43248;SDS011;29216;51.248;6.808;2023-04-26T07:09:35;17.10;;;6.38;;
43248;SDS011;29216;51.248;6.808;2023-04-26T07:12:01;9.93;;;5.85;;
43248;SDS011;29216;51.248;6.808;2023-04-26T07:14:27;11.73;;;5.03;;
43248;SDS011;29216;51.248;6.808;2023-04-26T07:16:53;10.35;;;4.88;;
43248;SDS011;29216;51.248;6.808;2023-04-26T07:19:19;8.02;;;4.28;;
43248;SDS011;29216;51.248;6.808;2023-04-26T07:21:45;7.20;;;4.47;;
43248;SDS011;29216;51.248;6.808;2023-04-26T07:24:11;9.82;;;4.60;;
43248;SDS011;29216;51.248;6.808;2023-04-26T07:26:37;10.05;;;5.00;;
43248;SDS011;29216;51.248;6.808;2023-04-26T07:29:03;12.45;;;5.40;;
43248;SDS011;29216;51.248;6.808;2023-04-26T07:31:30;8.02;;;4.95;;
43248;SDS011;29216;51.248;6.808;2023-04-26T07:33:56;15.63;;;5.07;;
43248;SDS011;29216;51.248;6.808;2023-04-26T07:36:22;10.02;;;4.72;;
43248;SDS011;29216;51.248;6.808;2023-04-26T07:38:51;12.75;;;5.32;;
43248;SDS011;29216;51.248;6.808;2023-04-26T07:41:17;9.15;;;5.75;;
43248;SDS011;29216;51.248;6.808;2023-04-26T07:43:43;9.65;;;3.97;;
43248;SDS011;29216;51.248;6.808;2023-04-26T07:46:09;9.93;;;4.43;;
43248;SDS011;29216;51.248;6.808;2023-04-26T07:48:35;9.23;;;4.18;;
43248;SDS011;29216;51.248;6.808;2023-04-26T07:51:08;12.52;;;4.57;;
43248;SDS011;29216;51.248;6.808;2023-04-26T07:53:34;5.57;;;2.83;;
43248;SDS011;29216;51.248;6.808;2023-04-26T07:56:02;10.00;;;3.40;;
43248;SDS011;29216;51.248;6.808;2023-04-26T07:58:28;11.77;;;3.53;;
43248;SDS011;29216;51.248;6.808;2023-04-26T08:00:57;6.97;;;2.92;;
43248;SDS011;29216;51.248;6.808;2023-04-26T08:03:23;9.43;;;3.80;;
43248;SDS011;29216;51.248;6.808;2023-04-26T08:05:51;8.32;;;3.30;;
43248;SDS011;29216;51.248;6.808;2023-04-26T08:08:17;7.35;;;2.80;;
43248;SDS011;29216;51.248;6.808;2023-04-26T08:10:44;6.07;;;2.83;;
43248;SDS011;29216;51.248;6.808;2023-04-26T08:13:10;7.90;;;2.90;;
43248;SDS011;29216;51.248;6.808;2023-04-26T08:15:36;6.47;;;2.33;;
43248;SDS011;29216;51.248;6.808;2023-04-26T08:18:02;8.57;;;2.40;;
43248;SDS011;29216;51.248;6.808;2023-04-26T08:20:28;7.75;;;3.35;;
43248;SDS011;29216;51.248;6.808;2023-04-26T08:22:55;5.68;;;2.65;;
43248;SDS011;29216;51.248;6.808;2023-04-26T08:25:21;9.25;;;3.08;;
43248;SDS011;29216;51.248;6.808;2023-04-26T08:27:47;5.97;;;2.80;;
43248;SDS011;29216;51.248;6.808;2023-04-26T08:30:13;7.85;;;2.97;;
43248;SDS011;29216;51.248;6.808;2023-04-26T08:32:39;5.25;;;2.88;;
43248;SDS011;29216;51.248;6.808;2023-04-26T08:35:05;6.63;;;2.83;;
43248;SDS011;29216;51.248;6.808;2023-04-26T08:37:33;7.38;;;3.17;;
43248;SDS011;29216;51.248;6.808;2023-04-26T08:39:59;7.78;;;3.63;;
43248;SDS011;29216;51.248;6.808;2023-04-26T08:42:26;5.55;;;3.42;;
43248;SDS011;29216;51.248;6.808;2023-04-26T08:44:53;9.07;;;3.75;;
43248;SDS011;29216;51.248;6.808;2023-04-26T08:47:23;10.25;;;4.28;;
43248;SDS011;29216;51.248;6.808;2023-04-26T08:49:52;11.10;;;4.57;;
43248;SDS011;29216;51.248;6.808;2023-04-26T08:52:23;9.40;;;3.87;;
43248;SDS011;29216;51.248;6.808;2023-04-26T08:54:51;11.35;;;3.75;;
43248;SDS011;29216;51.248;6.808;2023-04-26T08:57:21;7.10;;;2.80;;
43248;SDS011;29216;51.248;6.808;2023-04-26T08:59:47;8.70;;;2.92;;
43248;SDS011;29216;51.248;6.808;2023-04-26T09:02:16;9.55;;;3.67;;
43248;SDS011;29216;51.248;6.808;2023-04-26T09:04:43;6.45;;;2.70;;
43248;SDS011;29216;51.248;6.808;2023-04-26T09:07:09;9.25;;;2.97;;
43248;SDS011;29216;51.248;6.808;2023-04-26T09:09:40;9.52;;;3.08;;
43248;SDS011;29216;51.248;6.808;2023-04-26T09:12:07;8.82;;;2.63;;
43248;SDS011;29216;51.248;6.808;2023-04-26T09:14:33;6.35;;;2.40;;
43248;SDS011;29216;51.248;6.808;2023-04-26T09:16:59;7.57;;;2.83;;
43248;SDS011;29216;51.248;6.808;2023-04-26T09:22:04;9.82;;;3.33;;
43248;SDS011;29216;51.248;6.808;2023-04-26T09:24:49;6.40;;;2.63;;
43248;SDS011;29216;51.248;6.808;2023-04-26T09:27:18;14.43;;;2.83;;
43248;SDS011;29216;51.248;6.808;2023-04-26T09:35:19;12.88;;;3.58;;
43248;SDS011;29216;51.248;6.808;2023-04-26T09:37:56;9.82;;;2.45;;
43248;SDS011;29216;51.248;6.808;2023-04-26T09:40:26;6.50;;;2.28;;
43248;SDS011;29216;51.248;6.808;2023-04-26T09:42:59;8.90;;;2.67;;
43248;SDS011;29216;51.248;6.808;2023-04-26T09:45:26;5.95;;;2.20;;
43248;SDS011;29216;51.248;6.808;2023-04-26T09:47:52;7.93;;;2.80;;
43248;SDS011;29216;51.248;6.808;2023-04-26T09:50:28;8.20;;;2.92;;
43248;SDS011;29216;51.248;6.808;2023-04-26T09:52:54;5.95;;;2.45;;
43248;SDS011;29216;51.248;6.808;2023-04-26T09:55:30;5.60;;;2.38;;
43248;SDS011;29216;51.248;6.808;2023-04-26T09:57:56;3.60;;;2.20;;
43248;SDS011;29216;51.248;6.808;2023-04-26T10:00:24;4.68;;;2.00;;
43248;SDS011;29216;51.248;6.808;2023-04-26T10:02:51;5.53;;;2.47;;
43248;SDS011;29216;51.248;6.808;2023-04-26T10:05:18;7.57;;;2.17;;
43248;SDS011;29216;51.248;6.808;2023-04-26T10:07:44;3.50;;;2.10;;
43248;SDS011;29216;51.248;6.808;2023-04-26T10:10:10;5.10;;;2.35;;
43248;SDS011;29216;51.248;6.808;2023-04-26T10:12:36;6.88;;;2.40;;
43248;SDS011;29216;51.248;6.808;2023-04-26T10:15:02;6.28;;;2.70;;
43248;SDS011;29216;51.248;6.808;2023-04-26T10:17:28;8.55;;;2.90;;
43248;SDS011;29216;51.248;6.808;2023-04-26T10:19:56;8.13;;;2.83;;
43248;SDS011;29216;51.248;6.808;2023-04-26T10:22:25;8.43;;;2.90;;
43248;SDS011;29216;51.248;6.808;2023-04-26T10:24:52;7.60;;;2.25;;
43248;SDS011;29216;51.248;6.808;2023-04-26T10:30:06;7.57;;;2.65;;
43248;SDS011;29216;51.248;6.808;2023-04-26T10:32:35;5.85;;;2.40;;
43248;SDS011;29216;51.248;6.808;2023-04-26T10:35:19;4.13;;;2.47;;
43248;SDS011;29216;51.248;6.808;2023-04-26T10:40:32;5.60;;;2.60;;
43248;SDS011;29216;51.248;6.808;2023-04-26T10:45:43;5.53;;;2.55;;
43248;SDS011;29216;51.248;6.808;2023-04-26T10:48:30;8.55;;;2.67;;
43248;SDS011;29216;51.248;6.808;2023-04-26T10:53:58;4.90;;;2.67;;
43248;SDS011;29216;51.248;6.808;2023-04-26T10:59:08;5.03;;;2.65;;
43248;SDS011;29216;51.248;6.808;2023-04-26T11:01:35;5.30;;;2.55;;
43248;SDS011;29216;51.248;6.808;2023-04-26T11:04:08;5.85;;;2.20;;
43248;SDS011;29216;51.248;6.808;2023-04-26T11:06:46;5.07;;;2.17;;
43248;SDS011;29216;51.248;6.808;2023-04-26T11:11:58;9.75;;;2.30;;
43248;SDS011;29216;51.248;6.808;2023-04-26T11:14:24;8.65;;;2.33;;
43248;SDS011;29216;51.248;6.808;2023-04-26T11:16:51;4.85;;;2.20;;
43248;SDS011;29216;51.248;6.808;2023-04-26T11:19:17;3.78;;;2.30;;
43248;SDS011;29216;51.248;6.808;2023-04-26T11:21:43;8.75;;;3.08;;
43248;SDS011;29216;51.248;6.808;2023-04-26T11:24:09;6.13;;;2.50;;
43248;SDS011;29216;51.248;6.808;2023-04-26T11:26:35;7.93;;;2.45;;
43248;SDS011;29216;51.248;6.808;2023-04-26T11:29:01;4.75;;;2.40;;
43248;SDS011;29216;51.248;6.808;2023-04-26T11:31:28;10.68;;;2.90;;
43248;SDS011;29216;51.248;6.808;2023-04-26T11:33:59;7.22;;;2.70;;
43248;SDS011;29216;51.248;6.808;2023-04-26T11:36:26;3.83;;;2.30;;
43248;SDS011;29216;51.248;6.808;2023-04-26T11:38:52;8.90;;;2.70;;
43248;SDS011;29216;51.248;6.808;2023-04-26T11:41:18;7.03;;;2.53;;
43248;SDS011;29216;51.248;6.808;2023-04-26T11:43:48;5.40;;;2.58;;
43248;SDS011;29216;51.248;6.808;2023-04-26T11:46:14;7.38;;;2.92;;
43248;SDS011;29216;51.248;6.808;2023-04-26T11:48:40;3.95;;;2.25;;
43248;SDS011;29216;51.248;6.808;2023-04-26T11:51:07;6.97;;;2.60;;
43248;SDS011;29216;51.248;6.808;2023-04-26T11:53:34;4.50;;;2.40;;
43248;SDS011;29216;51.248;6.808;2023-04-26T11:56:01;5.18;;;2.22;;
43248;SDS011;29216;51.248;6.808;2023-04-26T11:58:27;4.68;;;2.30;;
43248;SDS011;29216;51.248;6.808;2023-04-26T12:00:57;7.75;;;2.50;;
43248;SDS011;29216;51.248;6.808;2023-04-26T12:03:30;4.68;;;2.08;;
43248;SDS011;29216;51.248;6.808;2023-04-26T12:05:59;7.72;;;3.38;;
43248;SDS011;29216;51.248;6.808;2023-04-26T12:08:25;6.13;;;2.20;;
43248;SDS011;29216;51.248;6.808;2023-04-26T12:10:52;5.22;;;2.50;;
43248;SDS011;29216;51.248;6.808;2023-04-26T12:13:19;5.13;;;2.35;;
43248;SDS011;29216;51.248;6.808;2023-04-26T12:15:45;5.45;;;2.45;;
43248;SDS011;29216;51.248;6.808;2023-04-26T12:18:12;6.30;;;2.38;;
43248;SDS011;29216;51.248;6.808;2023-04-26T12:20:40;6.80;;;2.15;;
43248;SDS011;29216;51.248;6.808;2023-04-26T12:23:11;2.90;;;2.00;;
43248;SDS011;29216;51.248;6.808;2023-04-26T12:25:38;6.30;;;2.42;;
43248;SDS011;29216;51.248;6.808;2023-04-26T12:28:05;6.55;;;2.38;;
43248;SDS011;29216;51.248;6.808;2023-04-26T12:30:36;4.05;;;2.40;;
43248;SDS011;29216;51.248;6.808;2023-04-26T12:33:04;3.10;;;2.10;;
43248;SDS011;29216;51.248;6.808;2023-04-26T12:35:30;6.40;;;2.30;;
43248;SDS011;29216;51.248;6.808;2023-04-26T12:37:56;8.65;;;2.38;;
43248;SDS011;29216;51.248;6.808;2023-04-26T12:40:24;5.88;;;2.30;;
43248;SDS011;29216;51.248;6.808;2023-04-26T12:42:50;7.72;;;2.40;;
43248;SDS011;29216;51.248;6.808;2023-04-26T12:45:17;5.43;;;2.53;;
43248;SDS011;29216;51.248;6.808;2023-04-26T12:47:44;4.75;;;2.17;;
43248;SDS011;29216;51.248;6.808;2023-04-26T12:50:10;3.85;;;2.05;;
43248;SDS011;29216;51.248;6.808;2023-04-26T12:52:37;4.38;;;2.33;;
43248;SDS011;29216;51.248;6.808;2023-04-26T12:55:03;7.13;;;2.03;;
43248;SDS011;29216;51.248;6.808;2023-04-26T12:57:30;5.70;;;2.25;;
43248;SDS011;29216;51.248;6.808;2023-04-26T12:59:56;6.93;;;2.20;;
43248;SDS011;29216;51.248;6.808;2023-04-26T13:02:22;4.30;;;2.28;;
43248;SDS011;29216;51.248;6.808;2023-04-26T13:04:48;4.70;;;2.33;;
43248;SDS011;29216;51.248;6.808;2023-04-26T13:07:14;9.60;;;2.65;;
43248;SDS011;29216;51.248;6.808;2023-04-26T13:09:41;5.00;;;2.30;;
43248;SDS011;29216;51.248;6.808;2023-04-26T13:12:07;5.95;;;2.15;;
43248;SDS011;29216;51.248;6.808;2023-04-26T13:14:33;3.22;;;2.22;;
43248;SDS011;29216;51.248;6.808;2023-04-26T13:16:59;5.90;;;2.63;;
43248;SDS011;29216;51.248;6.808;2023-04-26T13:19:25;5.93;;;2.22;;
43248;SDS011;29216;51.248;6.808;2023-04-26T13:21:51;5.38;;;2.40;;
43248;SDS011;29216;51.248;6.808;2023-04-26T13:24:17;8.27;;;3.08;;
43248;SDS011;29216;51.248;6.808;2023-04-26T13:26:43;4.80;;;2.72;;
43248;SDS011;29216;51.248;6.808;2023-04-26T13:29:09;6.00;;;2.35;;
43248;SDS011;29216;51.248;6.808;2023-04-26T13:31:35;4.72;;;2.70;;
43248;SDS011;29216;51.248;6.808;2023-04-26T13:34:02;7.05;;;2.83;;
43248;SDS011;29216;51.248;6.808;2023-04-26T13:36:29;3.05;;;2.20;;
43248;SDS011;29216;51.248;6.808;2023-04-26T13:38:56;8.02;;;2.45;;
43248;SDS011;29216;51.248;6.808;2023-04-26T13:41:22;5.10;;;2.65;;
43248;SDS011;29216;51.248;6.808;2023-04-26T13:43:48;7.40;;;2.58;;
43248;SDS011;29216;51.248;6.808;2023-04-26T13:46:14;4.15;;;2.22;;
43248;SDS011;29216;51.248;6.808;2023-04-26T13:48:40;3.78;;;2.38;;
43248;SDS011;29216;51.248;6.808;2023-04-26T13:51:06;8.63;;;2.88;;
43248;SDS011;29216;51.248;6.808;2023-04-26T13:53:32;4.57;;;2.53;;
43248;SDS011;29216;51.248;6.808;2023-04-26T13:55:58;10.27;;;3.03;;
43248;SDS011;29216;51.248;6.808;2023-04-26T13:58:24;4.93;;;2.78;;
43248;SDS011;29216;51.248;6.808;2023-04-26T14:00:50;5.65;;;2.40;;
43248;SDS011;29216;51.248;6.808;2023-04-26T14:03:16;6.28;;;2.90;;
43248;SDS011;29216;51.248;6.808;2023-04-26T14:05:42;4.78;;;2.53;;
43248;SDS011;29216;51.248;6.808;2023-04-26T14:08:08;8.32;;;2.58;;
43248;SDS011;29216;51.248;6.808;2023-04-26T14:10:36;7.95;;;2.60;;
43248;SDS011;29216;51.248;6.808;2023-04-26T14:13:02;7.03;;;2.60;;
43248;SDS011;29216;51.248;6.808;2023-04-26T14:15:28;4.15;;;2.40;;
43248;SDS011;29216;51.248;6.808;2023-04-26T14:17:54;6.47;;;2.53;;
43248;SDS011;29216;51.248;6.808;2023-04-26T14:20:20;6.85;;;2.83;;
43248;SDS011;29216;51.248;6.808;2023-04-26T14:22:46;6.03;;;2.88;;
43248;SDS011;29216;51.248;6.808;2023-04-26T14:25:14;5.38;;;2.53;;
43248;SDS011;29216;51.248;6.808;2023-04-26T14:27:40;6.70;;;2.83;;
43248;SDS011;29216;51.248;6.808;2023-04-26T14:30:07;6.45;;;2.83;;
43248;SDS011;29216;51.248;6.808;2023-04-26T14:32:33;6.97;;;2.95;;
43248;SDS011;29216;51.248;6.808;2023-04-26T14:34:59;5.57;;;2.55;;
43248;SDS011;29216;51.248;6.808;2023-04-26T14:37:25;4.13;;;2.30;;
43248;SDS011;29216;51.248;6.808;2023-04-26T14:39:51;9.45;;;3.35;;
43248;SDS011;29216;51.248;6.808;2023-04-26T14:42:17;6.53;;;2.60;;
43248;SDS011;29216;51.248;6.808;2023-04-26T14:44:43;6.43;;;3.30;;
43248;SDS011;29216;51.248;6.808;2023-04-26T14:47:10;6.38;;;2.88;;
43248;SDS011;29216;51.248;6.808;2023-04-26T14:49:36;7.68;;;2.70;;
43248;SDS011;29216;51.248;6.808;2023-04-26T14:52:02;5.95;;;2.55;;
43248;SDS011;29216;51.248;6.808;2023-04-26T14:54:28;5.88;;;2.67;;
43248;SDS011;29216;51.248;6.808;2023-04-26T14:56:55;6.45;;;2.80;;
43248;SDS011;29216;51.248;6.808;2023-04-26T14:59:25;7.47;;;3.20;;
43248;SDS011;29216;51.248;6.808;2023-04-26T15:01:51;7.00;;;2.75;;
43248;SDS011;29216;51.248;6.808;2023-04-26T15:04:17;8.13;;;2.70;;
43248;SDS011;29216;51.248;6.808;2023-04-26T15:06:43;3.42;;;2.40;;
43248;SDS011;29216;51.248;6.808;2023-04-26T15:09:09;4.45;;;2.65;;